createdAt,value
2022-10-22T00:00:06.102Z,87.09
2022-10-22T00:02:33.727Z,86.47
2022-10-22T00:05:01.334Z,87.87
2022-10-22T00:07:28.936Z,87.42
2022-10-22T00:09:56.597Z,87.75
2022-10-22T00:12:24.130Z,86.47
2022-10-22T00:14:53.131Z,83.52
2022-10-22T00:17:20.891Z,82.50
2022-10-22T00:19:48.461Z,80.81
2022-10-22T00:22:16.028Z,80.98
2022-10-22T00:24:43.820Z,81.19
2022-10-22T00:27:13.680Z,80.81
2022-10-22T00:29:41.422Z,80.90
2022-10-22T00:32:10.320Z,80.49
2022-10-22T00:34:38.138Z,80.74
2022-10-22T00:37:05.707Z,80.55
2022-10-22T00:39:33.327Z,80.50
2022-10-22T00:42:00.881Z,80.59
2022-10-22T00:45:05.934Z,80.75
2022-10-22T00:47:37.109Z,80.85
2022-10-22T00:50:07.910Z,80.78
2022-10-22T00:52:36.640Z,80.25
2022-10-22T00:55:04.863Z,80.04
2022-10-22T00:57:32.990Z,79.90
2022-10-22T01:00:00.563Z,79.78
2022-10-22T01:02:28.613Z,79.55
2022-10-22T01:04:57.557Z,79.83
2022-10-22T01:07:27.355Z,81.05
2022-10-22T01:10:06.209Z,80.42
2022-10-22T01:12:44.662Z,80.37
2022-10-22T01:15:20.478Z,81.17
2022-10-22T01:17:54.221Z,81.15
2022-10-22T01:20:42.278Z,81.04
2022-10-22T01:23:23.314Z,81.24
2022-10-22T01:25:57.910Z,81.78
2022-10-22T01:28:41.609Z,81.73
2022-10-22T01:31:12.854Z,81.38
2022-10-22T01:33:41.650Z,81.17
2022-10-22T01:36:10.408Z,81.32
2022-10-22T01:38:39.909Z,81.16
2022-10-22T01:41:08.066Z,80.86
2022-10-22T01:43:35.657Z,80.75
2022-10-22T01:46:06.974Z,80.83
2022-10-22T01:48:44.046Z,80.49
2022-10-22T01:51:30.727Z,80.35
2022-10-22T01:54:03.878Z,80.45
2022-10-22T01:56:43.412Z,80.21
2022-10-22T01:59:20.997Z,80.15
2022-10-22T02:01:58.142Z,79.79
2022-10-22T02:04:30.554Z,79.98
2022-10-22T02:07:02.921Z,79.60
2022-10-22T02:09:32.205Z,79.51
2022-10-22T02:14:42.601Z,79.24
2022-10-22T02:17:16.999Z,78.52
2022-10-22T02:19:52.701Z,78.62
2022-10-22T02:22:21.390Z,78.44
2022-10-22T02:24:50.327Z,77.78
2022-10-22T02:27:26.045Z,78.29
2022-10-22T02:29:59.537Z,77.88
2022-10-22T02:32:33.889Z,76.58
2022-10-22T02:35:02.899Z,76.08
2022-10-22T02:37:30.866Z,75.32
2022-10-22T02:39:58.470Z,77.21
2022-10-22T02:42:27.181Z,78.65
2022-10-22T02:44:55.078Z,77.92
2022-10-22T02:47:22.658Z,78.05
2022-10-22T02:49:51.542Z,78.24
2022-10-22T02:52:19.118Z,77.82
2022-10-22T02:54:47.568Z,79.08
2022-10-22T02:57:15.230Z,79.96
2022-10-22T02:59:42.833Z,79.95
2022-10-22T03:02:10.389Z,81.55
2022-10-22T03:04:38.027Z,80.25
2022-10-22T03:07:06.995Z,79.83
2022-10-22T03:09:34.590Z,78.71
2022-10-22T03:12:02.153Z,78.59
2022-10-22T03:14:29.692Z,80.77
2022-10-22T03:16:57.315Z,83.05
2022-10-22T03:19:24.873Z,84.09
2022-10-22T03:21:58.045Z,82.18
2022-10-22T03:24:30.941Z,77.86
2022-10-22T03:26:58.961Z,76.12
2022-10-22T03:29:27.937Z,75.86
2022-10-22T03:31:56.251Z,74.89
2022-10-22T03:34:23.809Z,74.83
2022-10-22T03:36:53.052Z,75.18
2022-10-22T03:39:21.134Z,74.31
2022-10-22T03:41:51.091Z,75.06
2022-10-22T03:44:19.608Z,74.42
2022-10-22T03:46:47.198Z,75.81
2022-10-22T03:49:14.766Z,76.42
2022-10-22T03:51:42.324Z,77.18
2022-10-22T03:54:10.644Z,76.98
2022-10-22T03:56:38.241Z,76.60
2022-10-22T03:59:07.133Z,77.20
2022-10-22T04:01:34.980Z,78.32
2022-10-22T04:04:02.577Z,78.70
2022-10-22T04:06:31.552Z,79.06
2022-10-22T04:09:01.098Z,78.66
2022-10-22T04:11:28.855Z,78.00
2022-10-22T04:13:56.391Z,77.20
2022-10-22T04:16:30.797Z,77.17
2022-10-22T04:18:58.613Z,78.28
2022-10-22T04:21:26.506Z,80.27
2022-10-22T04:23:54.602Z,81.12
2022-10-22T04:26:22.533Z,80.45
2022-10-22T04:28:51.724Z,80.14
2022-10-22T04:31:21.200Z,81.29
2022-10-22T04:33:53.814Z,82.29
2022-10-22T04:36:21.778Z,82.32
2022-10-22T04:38:54.278Z,81.57
2022-10-22T04:41:23.663Z,83.09
2022-10-22T04:43:51.621Z,81.64
2022-10-22T04:46:19.518Z,81.33
2022-10-22T04:48:47.938Z,82.61
2022-10-22T04:51:18.749Z,82.97
2022-10-22T04:53:46.814Z,82.60
2022-10-22T04:56:16.805Z,84.14
2022-10-22T04:58:45.090Z,83.56
2022-10-22T05:01:14.334Z,83.58
2022-10-22T05:03:42.173Z,82.37
2022-10-22T05:06:10.417Z,84.40
2022-10-22T05:08:39.342Z,83.49
2022-10-22T05:11:14.513Z,84.06
2022-10-22T05:13:42.074Z,83.30
2022-10-22T05:16:10.538Z,83.09
2022-10-22T05:18:38.965Z,84.41
2022-10-22T05:21:10.400Z,83.22
2022-10-22T05:23:39.735Z,85.42
2022-10-22T05:26:09.437Z,83.83
2022-10-22T05:28:37.228Z,85.25
2022-10-22T05:31:05.879Z,85.79
2022-10-22T05:33:35.147Z,85.70
2022-10-22T05:36:05.569Z,85.73
2022-10-22T05:38:33.550Z,85.44
2022-10-22T05:41:03.730Z,86.56
2022-10-22T05:43:31.813Z,85.58
2022-10-22T05:46:03.914Z,85.63
2022-10-22T05:51:04.412Z,86.03
2022-10-22T05:53:32.443Z,85.54
2022-10-22T05:56:05.927Z,85.87
2022-10-22T05:58:33.513Z,84.38
2022-10-22T06:01:04.902Z,84.10
2022-10-22T06:03:32.766Z,84.71
2022-10-22T06:06:02.357Z,85.24
2022-10-22T06:08:31.341Z,85.83
2022-10-22T06:10:59.077Z,85.73
2022-10-22T06:13:27.957Z,86.34
2022-10-22T06:15:55.657Z,87.57
2022-10-22T06:18:23.225Z,86.41
2022-10-22T06:20:51.131Z,86.91
2022-10-22T06:23:18.727Z,87.29
2022-10-22T06:25:57.229Z,87.58
2022-10-22T06:31:00.212Z,87.06
2022-10-22T06:33:28.583Z,88.07
2022-10-22T06:35:56.229Z,88.37
2022-10-22T06:38:23.908Z,88.64
2022-10-22T06:40:51.454Z,88.99
2022-10-22T06:43:19.006Z,88.71
2022-10-22T06:45:46.546Z,89.15
2022-10-22T06:48:15.746Z,89.17
2022-10-22T06:50:43.324Z,88.79
2022-10-22T06:53:10.948Z,89.01
2022-10-22T06:55:38.606Z,88.56
2022-10-22T06:58:06.842Z,89.06
2022-10-22T07:00:34.879Z,88.08
2022-10-22T07:03:02.448Z,88.36
2022-10-22T07:05:31.431Z,88.42
2022-10-22T07:07:58.970Z,89.58
2022-10-22T07:10:29.870Z,90.06
2022-10-22T07:12:58.899Z,89.99
2022-10-22T07:15:26.477Z,89.50
2022-10-22T07:17:54.007Z,88.07
2022-10-22T07:20:21.604Z,85.69
2022-10-22T07:22:50.458Z,85.16
2022-10-22T07:25:18.361Z,86.05
2022-10-22T07:27:45.998Z,85.59
2022-10-22T07:30:14.074Z,86.16
2022-10-22T07:32:41.735Z,84.06
2022-10-22T07:35:09.881Z,85.46
2022-10-22T07:37:37.574Z,84.57
2022-10-22T07:40:08.536Z,83.88
2022-10-22T07:42:36.122Z,85.55
2022-10-22T07:45:03.939Z,85.40
2022-10-22T07:47:31.531Z,83.50
2022-10-22T07:49:59.126Z,79.47
2022-10-22T07:52:26.724Z,79.40
2022-10-22T07:54:54.413Z,79.09
2022-10-22T07:57:23.311Z,79.97
2022-10-22T07:59:52.050Z,80.97
2022-10-22T08:02:19.644Z,82.09
2022-10-22T08:04:47.208Z,82.79
2022-10-22T08:07:14.812Z,83.19
2022-10-22T08:09:42.462Z,83.59
2022-10-22T08:12:10.052Z,83.42
2022-10-22T08:14:39.004Z,83.40
2022-10-22T08:17:06.583Z,82.54
2022-10-22T08:19:35.301Z,82.35
2022-10-22T08:22:03.201Z,82.09
2022-10-22T08:24:31.267Z,83.79
2022-10-22T08:27:02.358Z,82.86
2022-10-22T08:29:30.093Z,80.42
2022-10-22T08:31:59.080Z,78.39
2022-10-22T08:34:26.589Z,78.28
2022-10-22T08:36:54.084Z,77.21
2022-10-22T08:39:22.021Z,76.46
2022-10-22T08:41:59.821Z,76.97
2022-10-22T08:44:50.022Z,77.55
2022-10-22T08:47:34.711Z,76.12
2022-10-22T08:50:02.903Z,73.97
2022-10-22T08:52:33.406Z,74.27
2022-10-22T08:55:03.591Z,73.63
2022-10-22T08:57:44.941Z,72.92
2022-10-22T09:00:18.843Z,73.78
2022-10-22T09:02:59.858Z,70.66
2022-10-22T09:05:40.722Z,67.51
2022-10-22T09:08:12.513Z,64.62
2022-10-22T09:10:44.589Z,63.91
2022-10-22T09:13:16.966Z,61.16
2022-10-22T09:15:51.343Z,61.75
2022-10-22T09:18:30.818Z,58.63
2022-10-22T09:21:04.012Z,57.81
2022-10-22T09:23:39.042Z,56.35
2022-10-22T09:26:14.600Z,56.44
2022-10-22T09:28:42.481Z,56.91
2022-10-22T09:31:12.942Z,58.53
2022-10-22T09:33:43.190Z,55.12
2022-10-22T09:36:14.777Z,55.36
2022-10-22T09:38:47.296Z,55.35
2022-10-22T09:41:16.015Z,50.51
2022-10-22T09:43:43.643Z,52.72
2022-10-22T09:46:17.898Z,52.03
2022-10-22T09:48:50.882Z,51.94
2022-10-22T09:51:21.245Z,52.92
2022-10-22T09:53:56.893Z,53.23
2022-10-22T09:56:27.854Z,52.24
2022-10-22T09:58:58.269Z,49.75
2022-10-22T10:01:27.474Z,49.73
2022-10-22T10:04:06.997Z,51.50
2022-10-22T10:06:40.185Z,51.63
2022-10-22T10:09:15.889Z,52.79
2022-10-22T10:11:49.824Z,53.61
2022-10-22T10:14:22.607Z,54.44
2022-10-22T10:16:59.351Z,53.52
2022-10-22T10:19:41.075Z,55.56
2022-10-22T10:22:18.090Z,54.95
2022-10-22T10:25:04.789Z,53.08
2022-10-22T10:27:38.218Z,52.67
2022-10-22T10:30:12.799Z,50.94
2022-10-22T10:32:56.142Z,51.07
2022-10-22T10:35:29.193Z,50.56
2022-10-22T10:38:12.163Z,47.98
2022-10-22T10:40:46.059Z,47.50
2022-10-22T10:43:19.753Z,46.86
2022-10-22T10:45:58.539Z,45.95
2022-10-22T10:48:37.975Z,46.38
2022-10-22T10:51:21.321Z,46.99
2022-10-22T10:54:09.025Z,43.39
2022-10-22T10:56:42.051Z,47.25
2022-10-22T10:59:18.536Z,44.35
2022-10-22T11:02:11.774Z,45.03
2022-10-22T11:05:11.134Z,44.58
2022-10-22T11:07:46.582Z,42.30
2022-10-22T11:10:25.688Z,44.00
2022-10-22T11:12:56.266Z,46.48
2022-10-22T11:15:28.472Z,47.00
2022-10-22T11:18:00.481Z,44.49
2022-10-22T11:20:36.293Z,41.84
2022-10-22T11:23:20.861Z,41.66
2022-10-22T11:25:50.988Z,42.96
2022-10-22T11:28:24.698Z,45.19
2022-10-22T11:31:00.388Z,47.79
2022-10-22T11:33:34.705Z,47.91
2022-10-22T11:36:05.236Z,49.54
2022-10-22T11:38:35.936Z,49.48
2022-10-22T11:41:06.919Z,49.10
2022-10-22T11:43:52.289Z,48.29
2022-10-22T11:46:30.685Z,47.55
2022-10-22T11:49:17.716Z,47.72
2022-10-22T11:51:47.554Z,46.71
2022-10-22T11:54:42.755Z,45.71
2022-10-22T11:57:24.288Z,45.34
2022-10-22T11:59:54.814Z,45.38
2022-10-22T12:02:32.548Z,46.81
2022-10-22T12:05:20.532Z,47.51
2022-10-22T12:07:54.448Z,46.53
2022-10-22T12:10:29.430Z,47.44
2022-10-22T12:12:59.082Z,47.05
2022-10-22T12:15:28.916Z,47.17
2022-10-22T12:18:02.014Z,45.05
2022-10-22T12:20:31.110Z,44.60
2022-10-22T12:23:00.866Z,42.78
2022-10-22T12:25:35.649Z,42.55
2022-10-22T12:28:03.782Z,41.70
2022-10-22T12:30:34.625Z,39.71
2022-10-22T12:33:04.749Z,40.42
2022-10-22T12:35:35.533Z,40.21
2022-10-22T12:38:09.236Z,39.21
2022-10-22T12:40:38.153Z,38.19
2022-10-22T12:43:12.851Z,38.70
2022-10-22T12:45:41.064Z,38.41
2022-10-22T12:48:17.298Z,37.65
2022-10-22T12:50:49.521Z,39.11
2022-10-22T12:53:20.543Z,37.13
2022-10-22T12:55:52.907Z,36.09
2022-10-22T12:58:23.570Z,37.36
2022-10-22T13:00:58.517Z,35.57
2022-10-22T13:03:30.547Z,37.89
2022-10-22T13:05:58.172Z,40.41
2022-10-22T13:08:29.061Z,38.29
2022-10-22T13:11:07.939Z,39.20
2022-10-22T13:13:45.404Z,42.47
2022-10-22T13:16:18.844Z,43.31
2022-10-22T13:18:47.432Z,42.40
2022-10-22T13:21:27.866Z,42.41
2022-10-22T13:24:00.391Z,42.42
2022-10-22T13:26:34.437Z,43.08
2022-10-22T13:29:03.738Z,43.60
2022-10-22T13:31:33.588Z,44.15
2022-10-22T13:34:09.694Z,43.30
2022-10-22T13:36:39.366Z,43.93
2022-10-22T13:39:07.919Z,44.29
2022-10-22T13:44:13.048Z,45.08
2022-10-22T13:46:42.863Z,45.22
2022-10-22T13:49:16.287Z,45.82
2022-10-22T13:51:43.915Z,45.59
2022-10-22T13:54:16.767Z,45.46
2022-10-22T13:56:45.697Z,45.32
2022-10-22T13:59:13.492Z,46.07
2022-10-22T14:01:41.250Z,46.11
2022-10-22T14:04:13.725Z,46.42
2022-10-22T14:06:41.379Z,45.51
2022-10-22T14:09:14.711Z,46.70
2022-10-22T14:11:43.038Z,45.26
2022-10-22T14:14:14.105Z,45.31
2022-10-22T14:16:41.851Z,44.81
2022-10-22T14:19:16.158Z,45.60
2022-10-22T14:21:43.841Z,43.73
2022-10-22T14:24:13.189Z,44.18
2022-10-22T14:26:41.841Z,44.42
2022-10-22T14:29:10.675Z,44.47
2022-10-22T14:31:43.477Z,43.69
2022-10-22T14:34:12.703Z,43.70
2022-10-22T14:36:40.279Z,42.82
2022-10-22T14:39:07.863Z,42.80
2022-10-22T14:41:35.816Z,43.03
2022-10-22T14:44:03.403Z,43.88
2022-10-22T14:46:31.091Z,43.63
2022-10-22T14:49:00.034Z,45.29
2022-10-22T14:51:27.657Z,46.04
2022-10-22T14:53:55.266Z,44.87
2022-10-22T14:56:22.840Z,45.48
2022-10-22T14:58:50.874Z,44.88
2022-10-22T15:01:18.646Z,46.58
2022-10-22T15:03:46.178Z,47.24
2022-10-22T15:06:15.174Z,48.04
2022-10-22T15:08:42.761Z,49.54
2022-10-22T15:11:13.243Z,49.74
2022-10-22T15:13:41.243Z,50.82
2022-10-22T15:16:10.460Z,52.42
2022-10-22T15:18:38.482Z,53.14
2022-10-22T15:21:08.255Z,53.94
2022-10-22T15:23:39.118Z,54.63
2022-10-22T15:26:08.809Z,54.59
2022-10-22T15:28:37.882Z,55.15
2022-10-22T15:31:05.927Z,55.75
2022-10-22T15:33:33.610Z,57.09
2022-10-22T15:36:11.326Z,57.74
2022-10-22T15:38:41.079Z,57.98
2022-10-22T15:41:10.918Z,58.21
2022-10-22T15:43:38.605Z,58.98
2022-10-22T15:46:12.615Z,59.65
2022-10-22T15:48:40.301Z,59.83
2022-10-22T15:51:10.308Z,60.14
2022-10-22T15:53:38.015Z,61.21
2022-10-22T15:56:08.081Z,61.46
2022-10-22T15:58:35.681Z,61.36
2022-10-22T16:01:07.329Z,62.13
2022-10-22T16:03:35.802Z,62.96
2022-10-22T16:06:04.167Z,63.34
2022-10-22T16:08:32.165Z,64.65
2022-10-22T16:10:59.872Z,66.60
2022-10-22T16:13:28.914Z,68.17
2022-10-22T16:15:56.521Z,68.95
2022-10-22T16:18:24.522Z,71.10
2022-10-22T16:20:52.118Z,71.63
2022-10-22T16:23:20.796Z,72.72
2022-10-22T16:25:48.513Z,73.88
2022-10-22T16:28:16.874Z,74.59
2022-10-22T16:30:45.837Z,74.69
2022-10-22T16:33:13.642Z,75.33
2022-10-22T16:35:42.439Z,75.54
2022-10-22T16:38:11.290Z,76.51
2022-10-22T16:40:39.152Z,76.94
2022-10-22T16:43:06.747Z,77.31
2022-10-22T16:45:34.520Z,77.99
2022-10-22T16:48:03.513Z,78.39
2022-10-22T16:50:31.289Z,78.44
2022-10-22T16:52:58.975Z,79.13
2022-10-22T16:55:26.564Z,79.33
2022-10-22T16:57:54.327Z,79.97
2022-10-22T17:00:22.470Z,79.85
2022-10-22T17:02:53.757Z,80.46
2022-10-22T17:05:23.611Z,80.59
2022-10-22T17:07:51.868Z,80.89
2022-10-22T17:10:20.287Z,81.43
2022-10-22T17:12:48.518Z,81.21
2022-10-22T17:15:16.272Z,81.33
2022-10-22T17:17:48.179Z,82.06
2022-10-22T17:20:15.863Z,81.93
2022-10-22T17:22:44.809Z,82.54
2022-10-22T17:25:14.822Z,81.57
2022-10-22T17:27:43.839Z,83.34
2022-10-22T17:30:15.985Z,84.00
2022-10-22T17:32:43.591Z,84.07
2022-10-22T17:35:11.334Z,84.90
2022-10-22T17:37:39.239Z,84.85
2022-10-22T17:40:09.706Z,84.82
2022-10-22T17:42:37.357Z,85.17
2022-10-22T17:45:05.463Z,84.89
2022-10-22T17:47:33.066Z,84.97
2022-10-22T17:50:00.626Z,85.14
2022-10-22T17:52:28.337Z,84.72
2022-10-22T17:54:55.907Z,85.66
2022-10-22T17:57:24.802Z,85.62
2022-10-22T17:59:52.367Z,85.61
2022-10-22T18:02:20.074Z,85.45
2022-10-22T18:04:51.291Z,85.87
2022-10-22T18:07:20.707Z,86.25
2022-10-22T18:09:48.499Z,86.03
2022-10-22T18:12:17.970Z,86.38
2022-10-22T18:14:47.370Z,86.43
2022-10-22T18:19:49.610Z,86.82
2022-10-22T18:22:17.275Z,86.70
2022-10-22T18:24:44.906Z,86.69
2022-10-22T18:27:12.473Z,87.09
2022-10-22T18:29:39.999Z,87.45
2022-10-22T18:32:13.014Z,87.07
2022-10-22T18:34:41.065Z,86.94
2022-10-22T18:37:08.728Z,87.74
2022-10-22T18:39:36.336Z,87.66
2022-10-22T18:42:06.819Z,87.37
2022-10-22T18:44:35.551Z,88.22
2022-10-22T18:47:03.122Z,88.29
2022-10-22T18:49:32.029Z,88.45
2022-10-22T18:51:59.550Z,88.33
2022-10-22T18:54:27.282Z,88.33
2022-10-22T18:56:59.329Z,88.06
2022-10-22T18:59:29.950Z,88.77
2022-10-22T19:01:59.465Z,89.09
2022-10-22T19:04:32.928Z,88.89
2022-10-22T19:07:02.333Z,89.04
2022-10-22T19:09:30.146Z,89.13
2022-10-22T19:11:58.030Z,89.62
2022-10-22T19:14:25.742Z,89.68
2022-10-22T19:16:53.470Z,90.11
2022-10-22T19:19:23.217Z,89.88
2022-10-22T19:21:51.756Z,89.09
2022-10-22T19:24:21.711Z,88.63
2022-10-22T19:26:50.307Z,88.84
2022-10-22T19:29:20.579Z,88.62
2022-10-22T19:31:50.872Z,89.02
2022-10-22T19:34:19.435Z,89.21
2022-10-22T19:36:47.261Z,89.09
2022-10-22T19:39:16.411Z,88.52
2022-10-22T19:41:46.383Z,88.67
2022-10-22T19:44:14.065Z,88.85
2022-10-22T19:46:42.368Z,89.04
2022-10-22T19:49:10.947Z,88.91
2022-10-22T19:51:40.078Z,89.19
2022-10-22T19:54:10.064Z,89.19
2022-10-22T19:56:38.430Z,89.39
2022-10-22T19:59:08.288Z,89.96
2022-10-22T20:01:36.091Z,90.12
2022-10-22T20:04:04.152Z,90.34
2022-10-22T20:06:31.963Z,91.08
2022-10-22T20:08:59.831Z,90.90
2022-10-22T20:11:30.006Z,91.06
2022-10-22T20:13:58.341Z,91.57
2022-10-22T20:16:30.028Z,91.81
2022-10-22T20:19:01.305Z,91.64
2022-10-22T20:21:29.319Z,91.38
2022-10-22T20:23:57.433Z,91.07
2022-10-22T20:26:28.043Z,91.04
2022-10-22T20:28:56.907Z,91.36
2022-10-22T20:31:29.300Z,91.81
2022-10-22T20:33:58.811Z,91.98
2022-10-22T20:36:27.568Z,92.06
2022-10-22T20:39:00.308Z,92.00
2022-10-22T20:41:28.048Z,92.04
2022-10-22T20:43:55.726Z,92.05
2022-10-22T20:46:25.003Z,91.86
2022-10-22T20:48:56.119Z,91.91
2022-10-22T20:51:23.845Z,92.14
2022-10-22T20:53:51.765Z,92.29
2022-10-22T20:56:20.527Z,92.22
2022-10-22T20:58:49.006Z,92.30
2022-10-22T21:01:21.552Z,92.55
2022-10-22T21:03:49.951Z,92.91
2022-10-22T21:06:20.927Z,92.69
2022-10-22T21:08:48.966Z,92.65
2022-10-22T21:11:16.973Z,92.88
2022-10-22T21:13:44.714Z,92.66
2022-10-22T21:16:14.782Z,92.50
2022-10-22T21:18:42.410Z,92.36
2022-10-22T21:21:11.636Z,92.37
2022-10-22T21:23:41.150Z,92.46
2022-10-22T21:26:08.906Z,92.81
2022-10-22T21:28:37.398Z,92.98
2022-10-22T21:31:07.002Z,92.74
2022-10-22T21:33:37.028Z,93.00
2022-10-22T21:36:06.054Z,93.00
2022-10-22T21:38:34.002Z,93.31
2022-10-22T21:41:06.494Z,93.21
2022-10-22T21:43:34.289Z,93.43
2022-10-22T21:46:07.995Z,93.52
2022-10-22T21:48:36.493Z,93.46
2022-10-22T21:51:08.823Z,93.25
2022-10-22T21:53:37.052Z,93.59
2022-10-22T21:56:07.404Z,93.40
2022-10-22T21:58:35.778Z,93.30
2022-10-22T22:01:04.222Z,93.37
2022-10-22T22:03:31.943Z,93.32
2022-10-22T22:06:00.272Z,93.11
2022-10-22T22:08:28.567Z,93.23
2022-10-22T22:11:02.098Z,92.98
2022-10-22T22:13:31.499Z,93.20
2022-10-22T22:16:03.516Z,93.28
2022-10-22T22:18:31.086Z,93.18
2022-10-22T22:20:59.758Z,93.19
2022-10-22T22:23:27.666Z,93.15
2022-10-22T22:25:59.780Z,92.95
2022-10-22T22:28:27.665Z,92.88
2022-10-22T22:30:57.002Z,92.93
2022-10-22T22:33:24.978Z,93.17
2022-10-22T22:35:52.694Z,93.05
2022-10-22T22:38:20.241Z,93.34
2022-10-22T22:40:47.845Z,93.21
2022-10-22T22:43:15.422Z,93.46
2022-10-22T22:45:42.982Z,93.24
2022-10-22T22:48:11.873Z,93.19
2022-10-22T22:50:39.438Z,93.04
2022-10-22T22:53:07.006Z,93.26
2022-10-22T22:55:34.574Z,93.41
2022-10-22T22:58:02.121Z,93.34
2022-10-22T23:00:29.835Z,93.43
2022-10-22T23:02:57.504Z,93.66
2022-10-22T23:05:26.401Z,93.63
2022-10-22T23:07:53.989Z,93.49
2022-10-22T23:10:21.777Z,93.31
2022-10-22T23:12:50.621Z,93.56
2022-10-22T23:15:18.361Z,93.57
2022-10-22T23:17:45.926Z,93.36
2022-10-22T23:20:13.727Z,93.68
2022-10-22T23:22:42.837Z,93.76
2022-10-22T23:25:10.830Z,93.47
2022-10-22T23:27:38.395Z,93.47
2022-10-22T23:30:06.918Z,93.71
2022-10-22T23:32:34.553Z,93.86
2022-10-22T23:35:02.094Z,93.92
2022-10-22T23:37:29.615Z,93.82
2022-10-22T23:39:58.589Z,94.07
2022-10-22T23:42:26.190Z,93.89
2022-10-22T23:44:53.741Z,94.06
2022-10-22T23:47:21.514Z,94.15
2022-10-22T23:49:49.078Z,94.22
2022-10-22T23:52:16.678Z,94.14
2022-10-22T23:54:44.683Z,94.11
2022-10-22T23:57:13.650Z,94.19
2022-10-22T23:59:41.206Z,94.01
